createdAt,value
2018-02-04T00:00:58.742Z,10.70
2018-02-04T00:07:58.897Z,9.13
2018-02-04T00:09:59.881Z,9.23
2018-02-04T00:12:00.868Z,9.20
2018-02-04T00:14:01.861Z,9.50
2018-02-04T00:16:08.985Z,9.50
2018-02-04T00:18:10.019Z,10.67
2018-02-04T00:20:11.023Z,10.00
2018-02-04T00:22:38.685Z,10.13
2018-02-04T00:27:08.655Z,10.30
2018-02-04T00:29:09.662Z,10.82
2018-02-04T00:31:10.644Z,10.00
2018-02-04T00:33:11.630Z,9.90
2018-02-04T00:35:12.797Z,11.20
2018-02-04T00:37:13.791Z,10.30
2018-02-04T00:39:14.807Z,10.47
2018-02-04T00:41:15.774Z,11.20
2018-02-04T00:45:45.142Z,11.40
2018-02-04T00:50:22.904Z,12.87
2018-02-04T00:52:39.844Z,13.70
2018-02-04T00:54:40.828Z,13.10
2018-02-04T00:56:41.779Z,12.80
2018-02-04T01:01:10.393Z,13.87
2018-02-04T01:03:11.420Z,13.67
2018-02-04T01:05:12.388Z,13.20
2018-02-04T01:07:13.412Z,14.60
2018-02-04T01:09:14.546Z,14.90
2018-02-04T01:11:15.519Z,14.00
2018-02-04T01:13:16.491Z,13.20
2018-02-04T01:15:17.475Z,13.93
2018-02-04T01:17:18.449Z,14.93
2018-02-04T01:19:19.424Z,14.00
2018-02-04T01:21:20.512Z,15.60
2018-02-04T01:23:21.643Z,13.33
2018-02-04T01:25:22.608Z,15.83
2018-02-04T01:27:23.743Z,14.70
2018-02-04T01:29:42.992Z,13.93
2018-02-04T01:31:50.319Z,13.10
2018-02-04T01:36:19.071Z,12.02
2018-02-04T01:38:20.077Z,15.10
2018-02-04T01:40:21.089Z,13.82
2018-02-04T01:42:22.246Z,13.60
2018-02-04T01:44:23.227Z,12.70
2018-02-04T01:46:49.366Z,13.70
2018-02-04T01:48:50.401Z,13.45
2018-02-04T01:50:51.540Z,12.95
2018-02-04T01:52:52.765Z,13.13
2018-02-04T01:54:54.903Z,13.93
2018-02-04T02:01:52.214Z,12.00
2018-02-04T02:04:06.562Z,13.27
2018-02-04T02:06:08.490Z,14.95
2018-02-04T02:08:09.476Z,12.80
2018-02-04T02:10:11.177Z,12.63
2018-02-04T02:12:12.143Z,14.03
2018-02-04T02:14:39.211Z,14.73
2018-02-04T02:16:40.293Z,14.33
2018-02-04T02:18:41.296Z,15.93
2018-02-04T02:20:42.279Z,14.35
2018-02-04T02:22:43.247Z,13.93
2018-02-04T02:24:44.222Z,13.20
2018-02-04T02:26:45.200Z,14.90
2018-02-04T02:28:46.164Z,14.80
2018-02-04T02:30:47.140Z,14.10
2018-02-04T02:32:48.096Z,13.60
2018-02-04T02:34:49.060Z,15.70
2018-02-04T02:39:17.547Z,15.50
2018-02-04T02:43:53.810Z,15.25
2018-02-04T02:45:54.884Z,15.07
2018-02-04T02:47:56.678Z,16.10
2018-02-04T02:49:57.659Z,15.53
2018-02-04T02:51:58.630Z,16.27
2018-02-04T02:53:59.612Z,15.43
2018-02-04T02:56:00.603Z,16.27
2018-02-04T02:58:01.583Z,16.90
2018-02-04T03:02:35.604Z,15.30
2018-02-04T03:04:36.635Z,17.53
2018-02-04T03:06:37.609Z,17.03
2018-02-04T03:08:38.782Z,17.10
2018-02-04T03:10:39.796Z,17.93
2018-02-04T03:12:40.756Z,16.80
2018-02-04T03:14:42.486Z,18.10
2018-02-04T03:16:43.596Z,16.80
2018-02-04T03:18:44.602Z,17.60
2018-02-04T03:20:45.688Z,17.57
2018-02-04T03:23:08.477Z,18.37
2018-02-04T03:25:09.451Z,19.53
2018-02-04T03:27:10.446Z,17.20
2018-02-04T03:31:38.921Z,16.93
2018-02-04T03:33:39.892Z,16.93
2018-02-04T03:35:40.888Z,17.93
2018-02-04T03:38:08.729Z,18.50
2018-02-04T03:40:09.746Z,17.20
2018-02-04T03:42:11.517Z,19.30
2018-02-04T03:44:12.595Z,17.70
2018-02-04T03:46:39.962Z,17.33
2018-02-04T03:48:40.927Z,17.20
2018-02-04T03:50:41.895Z,18.00
2018-02-04T03:52:42.891Z,17.17
2018-02-04T03:54:43.854Z,18.67
2018-02-04T03:59:14.499Z,17.58
2018-02-04T04:01:15.624Z,17.40
2018-02-04T04:03:16.713Z,17.17
2018-02-04T04:05:17.721Z,17.70
2018-02-04T04:07:18.812Z,17.67
2018-02-04T04:09:19.874Z,18.83
2018-02-04T04:11:20.949Z,18.20
2018-02-04T04:13:21.999Z,17.90
2018-02-04T04:15:22.983Z,18.47
2018-02-04T04:17:39.926Z,18.70
2018-02-04T04:19:41.687Z,15.43
2018-02-04T04:21:43.016Z,17.10
2018-02-04T04:23:44.603Z,17.93
2018-02-04T04:25:45.683Z,17.47
2018-02-04T04:27:47.959Z,18.00
2018-02-04T04:32:17.659Z,17.95
2018-02-04T04:34:18.655Z,17.07
2018-02-04T04:36:19.620Z,19.90
2018-02-04T04:38:20.624Z,19.20
2018-02-04T04:40:46.835Z,18.10
2018-02-04T04:42:47.893Z,17.70
2018-02-04T04:45:16.758Z,18.33
2018-02-04T04:47:17.764Z,17.27
2018-02-04T04:49:18.760Z,17.80
2018-02-04T04:51:19.762Z,16.50
2018-02-04T04:55:49.718Z,18.47
2018-02-04T04:57:50.797Z,17.43
2018-02-04T04:59:51.747Z,16.42
2018-02-04T05:01:52.715Z,18.20
2018-02-04T05:03:53.683Z,17.20
2018-02-04T05:08:46.692Z,19.30
2018-02-04T05:10:47.756Z,16.77
2018-02-04T05:12:48.771Z,18.03
2018-02-04T05:15:16.771Z,16.60
2018-02-04T05:17:18.011Z,15.85
2018-02-04T05:19:19.028Z,16.97
2018-02-04T05:21:20.120Z,17.97
2018-02-04T05:23:21.174Z,18.70
2018-02-04T05:25:22.206Z,17.27
2018-02-04T05:27:23.275Z,17.63
2018-02-04T05:29:45.494Z,17.77
2018-02-04T05:34:14.335Z,17.98
2018-02-04T05:36:15.318Z,18.42
2018-02-04T05:38:34.944Z,17.47
2018-02-04T05:40:35.915Z,17.15
2018-02-04T05:42:36.929Z,16.93
2018-02-04T05:44:38.132Z,17.70
2018-02-04T05:46:39.108Z,17.40
2018-02-04T05:48:40.258Z,16.67
2018-02-04T05:50:41.258Z,16.42
2018-02-04T05:53:04.917Z,15.70
2018-02-04T05:57:34.075Z,12.90
2018-02-04T06:02:03.537Z,16.98
2018-02-04T06:04:04.742Z,15.53
2018-02-04T06:06:06.103Z,15.00
2018-02-04T06:08:07.114Z,16.77
2018-02-04T06:10:08.087Z,15.95
2018-02-04T06:12:09.047Z,14.90
2018-02-04T06:14:10.055Z,16.23
2018-02-04T06:18:38.915Z,15.55
2018-02-04T06:20:39.898Z,15.70
2018-02-04T06:22:40.895Z,17.13
2018-02-04T06:27:11.351Z,16.45
2018-02-04T06:29:12.695Z,15.80
2018-02-04T06:31:13.942Z,16.17
2018-02-04T06:35:53.071Z,16.40
2018-02-04T06:37:54.116Z,15.90
2018-02-04T06:39:55.371Z,15.07
2018-02-04T06:41:57.915Z,15.20
2018-02-04T06:43:59.068Z,17.58
2018-02-04T06:46:00.085Z,15.95
2018-02-04T06:48:03.620Z,16.10
2018-02-04T06:50:04.785Z,15.82
2018-02-04T06:52:05.811Z,15.52
2018-02-04T06:54:16.892Z,15.27
2018-02-04T06:56:25.276Z,18.60
2018-02-04T06:58:26.714Z,17.85
2018-02-04T07:00:27.804Z,16.87
2018-02-04T07:02:29.035Z,17.85
2018-02-04T07:04:30.258Z,16.83
2018-02-04T07:06:45.460Z,15.48
2018-02-04T07:08:46.621Z,16.62
2018-02-04T07:13:15.635Z,16.08
2018-02-04T07:15:16.986Z,17.15
2018-02-04T07:17:18.106Z,16.90
2018-02-04T07:19:42.791Z,18.98
2018-02-04T07:24:12.089Z,8.20
2018-02-04T07:26:13.428Z,6.12
2018-02-04T07:34:49.675Z,4.80
2018-02-04T07:36:51.577Z,7.25
2018-02-04T07:38:53.289Z,7.00
2018-02-04T07:41:00.751Z,6.10
2018-02-04T07:43:01.736Z,11.38
2018-02-04T07:45:02.818Z,12.00
2018-02-04T07:47:06.318Z,12.73
2018-02-04T07:49:08.208Z,12.23
2018-02-04T07:51:10.138Z,9.50
2018-02-04T07:53:11.906Z,12.23
2018-02-04T07:57:41.407Z,9.63
2018-02-04T07:59:43.594Z,8.65
2018-02-04T08:01:46.111Z,9.18
2018-02-04T08:06:20.105Z,11.00
2018-02-04T08:08:22.040Z,12.83
2018-02-04T08:10:24.937Z,13.13
2018-02-04T08:12:25.953Z,11.43
2018-02-04T08:14:28.975Z,14.38
2018-02-04T08:16:32.634Z,13.20
2018-02-04T08:18:34.299Z,14.53
2018-02-04T08:20:36.856Z,13.68
2018-02-04T08:22:39.224Z,18.30
2018-02-04T08:24:41.222Z,23.00
2018-02-04T08:29:10.695Z,19.73
2018-02-04T08:31:22.209Z,15.38
2018-02-04T08:33:33.747Z,16.02
2018-02-04T08:35:34.902Z,16.37
2018-02-04T08:37:36.039Z,16.87
2018-02-04T08:39:45.530Z,18.87
2018-02-04T08:41:47.558Z,18.27
2018-02-04T08:44:03.921Z,18.20
2018-02-04T08:46:05.812Z,16.58
2018-02-04T08:48:06.939Z,15.70
2018-02-04T08:52:36.066Z,15.57
2018-02-04T08:54:37.068Z,16.50
2018-02-04T08:56:38.023Z,15.50
2018-02-04T08:58:38.995Z,16.17
2018-02-04T09:00:39.959Z,16.23
2018-02-04T09:02:41.039Z,14.07
2018-02-04T09:07:10.128Z,24.90
2018-02-04T09:09:12.548Z,20.03
2018-02-04T09:11:20.423Z,13.88
2018-02-04T09:13:21.464Z,18.50
2018-02-04T09:15:22.424Z,25.93
2018-02-04T09:17:23.392Z,21.97
2018-02-04T09:19:42.578Z,40.53
2018-02-04T09:21:44.338Z,15.13
2018-02-04T09:26:36.885Z,14.70
2018-02-04T09:28:38.012Z,14.43
2018-02-04T09:30:39.019Z,15.00
2018-02-04T09:32:40.044Z,16.50
2018-02-04T09:34:41.036Z,15.80
2018-02-04T09:36:42.043Z,14.40
2018-02-04T09:38:43.010Z,14.00
2018-02-04T09:40:43.980Z,12.20
2018-02-04T09:45:02.869Z,13.00
2018-02-04T09:47:04.084Z,13.67
2018-02-04T09:51:13.456Z,15.63
2018-02-04T09:53:14.791Z,14.60
2018-02-04T09:55:15.837Z,14.43
2018-02-04T09:57:44.033Z,14.23
2018-02-04T09:59:45.132Z,13.23
2018-02-04T10:01:46.175Z,14.90
2018-02-04T10:03:47.192Z,16.17
2018-02-04T10:05:48.944Z,16.10
2018-02-04T10:07:49.960Z,16.10
2018-02-04T10:09:51.723Z,16.23
2018-02-04T10:11:52.771Z,17.90
2018-02-04T10:13:53.735Z,16.50
2018-02-04T10:15:54.769Z,16.50
2018-02-04T10:18:14.566Z,16.50
2018-02-04T10:20:18.619Z,18.83
2018-02-04T10:22:20.227Z,17.47
2018-02-04T10:27:21.680Z,15.83
2018-02-04T10:29:26.215Z,17.77
2018-02-04T10:31:47.296Z,15.57
2018-02-04T10:33:48.266Z,17.33
2018-02-04T10:38:47.319Z,16.50
2018-02-04T10:40:48.372Z,17.83
2018-02-04T10:42:49.366Z,18.83
2018-02-04T10:44:50.376Z,16.93
2018-02-04T10:46:51.392Z,18.07
2018-02-04T10:48:52.413Z,18.60
2018-02-04T10:56:08.119Z,19.60
2018-02-04T10:58:16.245Z,18.20
2018-02-04T11:02:45.929Z,19.33
2018-02-04T11:09:31.080Z,19.63
2018-02-04T11:14:00.553Z,20.20
2018-02-04T11:16:27.278Z,19.70
2018-02-04T11:18:28.235Z,18.70
2018-02-04T11:20:46.274Z,19.60
2018-02-04T11:22:47.599Z,17.90
2018-02-04T11:24:48.596Z,18.37
2018-02-04T11:26:49.572Z,18.87
2018-02-04T11:28:59.120Z,19.30
2018-02-04T11:31:20.355Z,19.30
2018-02-04T11:38:21.271Z,16.57
2018-02-04T11:43:01.992Z,17.03
2018-02-04T11:45:03.954Z,14.43
2018-02-04T11:49:49.941Z,15.73
2018-02-04T11:51:51.006Z,12.90
2018-02-04T11:53:51.971Z,16.10
2018-02-04T11:55:52.968Z,13.10
2018-02-04T11:57:54.736Z,13.47
2018-02-04T12:00:05.123Z,13.30
2018-02-04T12:04:19.576Z,13.00
2018-02-04T12:06:20.584Z,11.73
2018-02-04T12:08:28.561Z,13.20
2018-02-04T12:10:29.553Z,12.73
2018-02-04T12:12:30.554Z,14.13
2018-02-04T12:14:31.702Z,13.87
2018-02-04T12:16:32.731Z,12.93
2018-02-04T12:28:43.299Z,12.40
2018-02-04T12:36:08.760Z,13.10
2018-02-04T12:38:22.706Z,12.40
2018-02-04T12:45:37.775Z,13.40
2018-02-04T12:47:49.846Z,15.77
2018-02-04T12:52:24.454Z,13.10
2018-02-04T12:54:34.431Z,13.17
2018-02-04T13:01:49.695Z,13.40
2018-02-04T13:06:18.163Z,12.33
2018-02-04T13:08:32.307Z,13.10
2018-02-04T13:10:33.401Z,12.90
2018-02-04T13:12:34.439Z,13.60
2018-02-04T13:14:36.151Z,13.37
2018-02-04T13:16:40.752Z,13.30
2018-02-04T13:21:09.344Z,13.10
2018-02-04T13:23:10.460Z,13.03
2018-02-04T13:25:11.507Z,14.33
2018-02-04T13:29:52.865Z,13.20
2018-02-04T13:31:53.929Z,15.57
2018-02-04T13:33:55.836Z,15.73
2018-02-04T13:41:01.881Z,17.00
2018-02-04T13:43:02.833Z,15.13
2018-02-04T13:45:04.057Z,15.60
2018-02-04T13:47:05.286Z,13.40
2018-02-04T13:49:06.349Z,13.67
2018-02-04T13:53:46.686Z,14.80
2018-02-04T13:55:47.654Z,14.40
2018-02-04T13:57:48.938Z,14.70
2018-02-04T13:59:51.740Z,13.57
2018-02-04T14:04:17.613Z,12.53
2018-02-04T14:08:46.216Z,20.33
2018-02-04T14:10:47.183Z,14.53
2018-02-04T14:12:48.168Z,15.33
2018-02-04T14:14:49.602Z,15.17
2018-02-04T14:16:58.594Z,14.73
2018-02-04T14:21:27.336Z,14.67
2018-02-04T14:23:29.479Z,14.83
2018-02-04T14:25:30.543Z,15.00
2018-02-04T14:27:31.502Z,15.50
2018-02-04T14:29:32.437Z,14.97
2018-02-04T14:31:33.417Z,15.93
2018-02-04T14:33:59.057Z,15.23
2018-02-04T14:36:00.170Z,16.13
2018-02-04T14:40:30.041Z,14.23
2018-02-04T14:44:58.826Z,15.43
2018-02-04T14:46:59.810Z,15.50
2018-02-04T14:51:18.243Z,14.53
2018-02-04T14:53:25.080Z,14.83
2018-02-04T14:55:30.275Z,13.80
2018-02-04T14:57:31.290Z,13.73
2018-02-04T14:59:33.624Z,14.10
2018-02-04T15:01:34.756Z,14.10
2018-02-04T15:03:36.358Z,13.50
2018-02-04T15:05:37.344Z,13.47
2018-02-04T15:07:38.433Z,12.80
2018-02-04T15:09:39.508Z,14.33
2018-02-04T15:11:40.599Z,14.13
2018-02-04T15:14:04.575Z,14.57
2018-02-04T15:18:35.938Z,13.93
2018-02-04T15:23:01.415Z,13.97
2018-02-04T15:25:02.360Z,14.40
2018-02-04T15:27:03.324Z,14.80
2018-02-04T15:29:04.314Z,14.80
2018-02-04T15:31:05.311Z,14.50
2018-02-04T15:33:10.056Z,14.00
2018-02-04T15:35:11.303Z,13.60
2018-02-04T15:37:12.287Z,14.17
2018-02-04T15:39:16.409Z,14.77
2018-02-04T15:41:17.446Z,17.43
2018-02-04T15:43:18.467Z,17.73
2018-02-04T15:50:41.636Z,15.40
2018-02-04T15:55:20.845Z,14.77
2018-02-04T15:57:23.064Z,15.10
2018-02-04T15:59:46.460Z,13.77
2018-02-04T16:01:47.565Z,15.80
2018-02-04T16:03:48.594Z,14.60
2018-02-04T16:05:49.537Z,15.33
2018-02-04T16:10:17.418Z,13.83
2018-02-04T16:12:19.433Z,15.03
2018-02-04T16:14:21.173Z,14.87
2018-02-04T16:16:22.245Z,14.87
2018-02-04T16:18:23.240Z,15.17
2018-02-04T16:20:30.228Z,15.90
2018-02-04T16:22:31.627Z,16.77
2018-02-04T16:24:32.576Z,14.40
2018-02-04T16:26:47.431Z,15.63
2018-02-04T16:28:48.412Z,15.40
2018-02-04T16:30:49.416Z,13.20
2018-02-04T16:32:50.388Z,15.73
2018-02-04T16:34:51.459Z,21.20
2018-02-04T16:36:52.445Z,17.50
2018-02-04T16:38:53.399Z,15.90
2018-02-04T16:40:54.414Z,17.20
2018-02-04T16:42:55.408Z,17.00
2018-02-04T16:44:56.396Z,15.47
2018-02-04T16:47:01.836Z,15.43
2018-02-04T16:49:03.033Z,15.60
2018-02-04T16:51:04.133Z,16.00
2018-02-04T16:53:05.112Z,15.77
2018-02-04T16:55:17.052Z,14.60
2018-02-04T16:57:18.061Z,14.73
2018-02-04T16:59:19.087Z,22.13
2018-02-04T17:01:20.127Z,20.77
2018-02-04T17:03:22.093Z,16.27
2018-02-04T17:05:23.125Z,14.40
2018-02-04T17:07:24.319Z,14.77
2018-02-04T17:09:25.331Z,16.63
2018-02-04T17:11:26.438Z,17.07
2018-02-04T17:13:28.213Z,17.20
2018-02-04T17:15:29.238Z,16.00
2018-02-04T17:17:43.976Z,15.90
2018-02-04T17:24:19.631Z,15.87
2018-02-04T17:26:25.981Z,15.20
2018-02-04T17:28:27.019Z,15.30
2018-02-04T17:30:27.972Z,19.70
2018-02-04T17:32:29.163Z,17.37
2018-02-04T17:34:30.115Z,27.70
2018-02-04T17:36:31.251Z,18.67
2018-02-04T17:38:32.987Z,24.83
2018-02-04T17:40:33.992Z,18.27
2018-02-04T17:42:34.995Z,20.00
2018-02-04T17:44:36.752Z,18.17
2018-02-04T17:46:37.720Z,16.10
2018-02-04T17:48:39.403Z,19.77
2018-02-04T17:50:40.411Z,16.17
2018-02-04T17:52:44.244Z,18.37
2018-02-04T17:54:45.269Z,17.73
2018-02-04T17:56:58.848Z,20.70
2018-02-04T17:59:00.998Z,21.50
2018-02-04T18:01:02.719Z,18.30
2018-02-04T18:03:03.676Z,17.40
2018-02-04T18:05:14.952Z,17.07
2018-02-04T18:07:15.944Z,17.50
2018-02-04T18:09:17.725Z,19.70
2018-02-04T18:11:18.707Z,19.10
2018-02-04T18:13:19.671Z,18.70
2018-02-04T18:15:20.683Z,19.60
2018-02-04T18:17:21.694Z,21.20
2018-02-04T18:19:45.604Z,16.87
2018-02-04T18:21:49.190Z,19.27
2018-02-04T18:23:50.323Z,17.30
2018-02-04T18:25:51.309Z,15.90
2018-02-04T18:27:54.925Z,15.60
2018-02-04T18:29:56.855Z,19.20
2018-02-04T18:31:57.834Z,22.23
2018-02-04T18:33:58.778Z,20.97
2018-02-04T18:35:59.806Z,17.90
2018-02-04T18:38:01.744Z,19.60
2018-02-04T18:40:02.914Z,18.10
2018-02-04T18:42:14.299Z,20.13
2018-02-04T18:44:22.275Z,18.17
2018-02-04T18:46:23.592Z,18.50
2018-02-04T18:48:24.569Z,17.80
2018-02-04T18:50:25.556Z,17.93
2018-02-04T18:52:26.660Z,19.37
2018-02-04T18:54:27.652Z,19.93
2018-02-04T18:56:28.844Z,18.70
2018-02-04T18:58:37.073Z,18.87
2018-02-04T19:00:38.375Z,18.67
2018-02-04T19:02:40.124Z,19.40
2018-02-04T19:04:42.933Z,19.57
2018-02-04T19:06:45.111Z,18.27
2018-02-04T19:08:46.172Z,18.83
2018-02-04T19:12:57.825Z,18.10
2018-02-04T19:15:06.912Z,17.30
2018-02-04T19:17:09.198Z,18.67
2018-02-04T19:19:10.195Z,19.30
2018-02-04T19:21:11.178Z,19.30
2018-02-04T19:23:12.907Z,19.07
2018-02-04T19:25:13.890Z,27.53
2018-02-04T19:27:14.883Z,24.53
2018-02-04T19:29:15.828Z,21.60
2018-02-04T19:31:16.879Z,20.67
2018-02-04T19:33:17.892Z,21.87
2018-02-04T19:35:18.886Z,37.63
2018-02-04T19:37:19.895Z,24.80
2018-02-04T19:39:21.273Z,23.13
2018-02-04T19:41:23.188Z,23.40
2018-02-04T19:43:24.883Z,21.00
2018-02-04T19:45:26.031Z,29.10
2018-02-04T19:47:27.008Z,27.03
2018-02-04T19:49:29.177Z,22.00
2018-02-04T19:51:30.305Z,20.00
2018-02-04T19:53:31.298Z,20.83
2018-02-04T19:55:32.278Z,21.27
2018-02-04T19:57:33.255Z,27.07
2018-02-04T19:59:37.061Z,21.00
2018-02-04T20:01:38.464Z,19.37
2018-02-04T20:03:42.633Z,19.40
2018-02-04T20:05:44.038Z,21.00
2018-02-04T20:07:46.472Z,20.83
2018-02-04T20:09:48.128Z,21.07
2018-02-04T20:11:54.173Z,23.83
2018-02-04T20:13:56.874Z,25.67
2018-02-04T20:16:03.346Z,23.70
2018-02-04T20:18:04.584Z,41.10
2018-02-04T20:20:06.348Z,26.30
2018-02-04T20:22:07.308Z,22.80
2018-02-04T20:24:08.996Z,28.67
2018-02-04T20:26:09.951Z,22.40
2018-02-04T20:28:10.955Z,21.80
2018-02-04T20:30:12.650Z,22.10
2018-02-04T20:32:26.004Z,24.30
2018-02-04T20:34:39.586Z,24.80
2018-02-04T20:36:40.562Z,20.97
2018-02-04T20:38:41.909Z,19.53
2018-02-04T20:40:43.055Z,22.67
2018-02-04T20:42:44.768Z,20.40
2018-02-04T20:44:45.884Z,20.30
2018-02-04T20:48:55.282Z,21.33
2018-02-04T20:50:56.229Z,19.67
2018-02-04T20:53:11.609Z,19.77
2018-02-04T20:55:12.637Z,20.07
2018-02-04T20:57:13.839Z,20.50
2018-02-04T20:59:24.228Z,19.63
2018-02-04T21:01:25.333Z,20.40
2018-02-04T21:03:26.303Z,20.33
2018-02-04T21:05:50.326Z,20.70
2018-02-04T21:07:51.560Z,20.17
2018-02-04T21:09:53.260Z,20.00
2018-02-04T21:11:54.227Z,20.90
2018-02-04T21:13:55.185Z,19.27
2018-02-04T21:15:56.312Z,20.27
2018-02-04T21:17:57.288Z,21.27
2018-02-04T21:19:58.251Z,23.03
2018-02-04T21:22:03.060Z,21.73
2018-02-04T21:24:04.190Z,20.87
2018-02-04T21:28:55.620Z,20.50
2018-02-04T21:30:56.608Z,19.43
2018-02-04T21:33:01.682Z,19.67
2018-02-04T21:35:05.039Z,19.83
2018-02-04T21:37:06.040Z,18.80
2018-02-04T21:39:07.796Z,19.60
2018-02-04T21:41:08.766Z,19.27
2018-02-04T21:43:24.396Z,19.30
2018-02-04T21:45:25.360Z,21.30
2018-02-04T21:47:26.422Z,20.10
2018-02-04T21:49:28.183Z,20.67
2018-02-04T21:51:54.712Z,20.70
2018-02-04T21:53:55.680Z,20.00
2018-02-04T21:58:20.070Z,20.10
2018-02-04T22:02:29.747Z,21.37
2018-02-04T22:04:30.717Z,23.80
2018-02-04T22:06:31.671Z,28.60
2018-02-04T22:08:32.722Z,21.43
2018-02-04T22:13:13.330Z,23.73
2018-02-04T22:15:35.929Z,23.77
2018-02-04T22:17:37.087Z,23.90
2018-02-04T22:19:38.060Z,26.33
2018-02-04T22:21:39.082Z,26.13
2018-02-04T22:23:40.132Z,25.27
2018-02-04T22:25:41.099Z,25.90
2018-02-04T22:27:44.769Z,33.70
2018-02-04T22:29:51.860Z,27.47
2018-02-04T22:31:52.931Z,25.17
2018-02-04T22:33:54.058Z,27.27
2018-02-04T22:35:55.069Z,42.60
2018-02-04T22:37:56.091Z,31.00
2018-02-04T22:42:14.536Z,26.97
2018-02-04T22:44:15.575Z,26.50
2018-02-04T22:46:16.527Z,22.27
2018-02-04T22:48:17.490Z,27.33
2018-02-04T22:50:18.483Z,26.57
2018-02-04T22:52:20.174Z,24.60
2018-02-04T22:54:21.167Z,25.87
2018-02-04T22:56:22.167Z,25.70
2018-02-04T22:58:23.114Z,27.10
2018-02-04T23:00:24.122Z,25.10
2018-02-04T23:02:38.306Z,26.47
2018-02-04T23:04:39.321Z,24.27
2018-02-04T23:06:40.277Z,25.00
2018-02-04T23:11:18.027Z,25.30
2018-02-04T23:13:19.004Z,25.03
2018-02-04T23:15:20.067Z,26.13
2018-02-04T23:17:21.072Z,26.40
2018-02-04T23:19:22.040Z,25.40
2018-02-04T23:24:06.725Z,26.27
2018-02-04T23:26:07.714Z,23.90
2018-02-04T23:28:08.691Z,24.77
2018-02-04T23:30:09.713Z,25.70
2018-02-04T23:32:10.760Z,27.67
2018-02-04T23:34:12.452Z,25.67
2018-02-04T23:36:15.549Z,26.13
2018-02-04T23:38:17.244Z,26.73
2018-02-04T23:40:18.198Z,26.97
2018-02-04T23:42:19.196Z,26.80
2018-02-04T23:44:20.187Z,26.10
2018-02-04T23:46:21.146Z,25.93
2018-02-04T23:48:22.115Z,25.50
2018-02-04T23:50:23.081Z,23.97
2018-02-04T23:52:24.787Z,27.80
2018-02-04T23:54:25.781Z,26.70
2018-02-04T23:56:26.807Z,27.07
2018-02-04T23:58:37.119Z,26.80
